Time;durP1;ratioP1;P1;durP2;ratioP2;P2;SDS_P1;SDS_P2;PMS_P1;PMS_P2;Temp;Humidity;BMP_temperature;BMP_pressure;BME280_temperature;BME280_humidity;BME280_pressure;Samples;Min_cycle;Max_cycle;Signal;HPM_P1;HPM_P2
2022/04/04 00:00:11;;;;;;;;;;;-0.40;88.30;;;;;;5101950;28;20004;-65
2022/04/04 00:02:37;;;;;;;;;;;-0.40;88.40;;;;;;5100848;28;19946;-65
2022/04/04 00:05:03;;;;;;;;;;;-0.50;88.80;;;;;;5101801;28;20138;-65
2022/04/04 00:07:29;;;;;;;;;;;-0.60;89.00;;;;;;5101417;28;19975;-65
2022/04/04 00:09:54;;;;;;;;;;;-0.50;89.10;;;;;;5102102;28;19957;-66
2022/04/04 00:12:20;;;;;;;;;;;-0.50;88.70;;;;;;5101479;28;19975;-66
2022/04/04 00:14:47;;;;;;;;;;;-0.50;88.50;;;;;;5101606;28;19935;-65
2022/04/04 00:17:12;;;;;;;;;;;-0.50;88.50;;;;;;5101722;28;20115;-66
2022/04/04 00:19:39;;;;;;;;;;;-0.60;88.80;;;;;;5111136;28;19907;-66
2022/04/04 00:22:04;;;;;;;;;;;-0.60;89.00;;;;;;5121648;28;19943;-66
2022/04/04 00:24:30;;;;;;;;;;;-0.70;89.40;;;;;;5121522;28;19919;-66
2022/04/04 00:26:56;;;;;;;;;;;-0.70;89.80;;;;;;5121752;28;19943;-66
2022/04/04 00:29:22;;;;;;;;;;;-0.80;90.00;;;;;;5122024;28;19907;-66
2022/04/04 00:31:48;;;;;;;;;;;-0.80;90.00;;;;;;5121675;28;19961;-66
2022/04/04 00:34:13;;;;;;;;;;;-0.80;89.90;;;;;;5105631;28;19908;-66
2022/04/04 00:36:40;;;;;;;;;;;-0.80;90.00;;;;;;5101456;28;19912;-66
2022/04/04 00:39:06;;;;;;;;;;;-0.90;90.10;;;;;;5101432;28;19991;-65
2022/04/04 00:41:31;;;;;;;;;;;-0.90;90.30;;;;;;5102131;28;19973;-66
2022/04/04 00:43:57;;;;;;;;;;;-0.90;90.00;;;;;;5102530;28;19913;-66
2022/04/04 00:46:23;;;;;;;;;;;-0.80;89.40;;;;;;5102635;28;19967;-66
2022/04/04 00:48:48;;;;;;;;;;;-0.90;89.50;;;;;;5102471;28;19958;-64
2022/04/04 00:51:14;;;;;;;;;;;-0.90;90.20;;;;;;5102241;28;19908;-64
2022/04/04 00:53:40;;;;;;;;;;;-1.00;90.60;;;;;;5102452;28;20122;-65
2022/04/04 00:56:06;;;;;;;;;;;-0.90;90.30;;;;;;5102488;28;19916;-64
2022/04/04 00:58:32;;;;;;;;;;;-1.00;90.40;;;;;;5067809;28;19915;-65
2022/04/04 01:00:58;;;;;;;;;;;-1.00;90.30;;;;;;5067533;28;19908;-64
2022/04/04 01:03:25;;;;;;;;;;;-1.10;90.40;;;;;;5102300;28;19934;-64
2022/04/04 01:05:50;;;;;;;;;;;-1.10;90.40;;;;;;5102283;28;20141;-65
2022/04/04 01:08:16;;;;;;;;;;;-1.20;90.60;;;;;;5102107;28;20018;-65
2022/04/04 01:10:42;;;;;;;;;;;-1.20;90.80;;;;;;5102044;28;20115;-64
2022/04/04 01:13:09;;;;;;;;;;;-1.30;90.80;;;;;;5084608;28;20202;-64
2022/04/04 01:15:35;;;;;;;;;;;-1.30;90.90;;;;;;5105929;28;19916;-65
2022/04/04 01:18:05;;;;;;;;;;;-1.30;90.90;;;;;;5106357;28;19908;-64
2022/04/04 01:20:31;;;;;;;;;;;-1.30;91.00;;;;;;5105928;28;19916;-64
2022/04/04 01:22:57;;;;;;;;;;;-1.30;91.00;;;;;;5105878;28;19987;-65
2022/04/04 01:25:27;;;;;;;;;;;-1.30;91.00;;;;;;5106081;28;20088;-64
2022/04/04 01:27:54;;;;;;;;;;;-1.30;91.10;;;;;;5106192;28;20107;-64
2022/04/04 01:30:21;;;;;;;;;;;-1.30;91.00;;;;;;5106133;28;19939;-64
2022/04/04 01:32:49;;;;;;;;;;;-1.30;91.00;;;;;;5104796;28;19916;-64
2022/04/04 01:35:20;;;;;;;;;;;-1.40;91.30;;;;;;5088551;28;19923;-64
2022/04/04 01:37:46;;;;;;;;;;;-1.40;91.00;;;;;;5106010;28;20188;-64
2022/04/04 01:40:12;;;;;;;;;;;-1.50;91.00;;;;;;5105946;28;19923;-65
2022/04/04 01:42:38;;;;;;;;;;;-1.50;91.10;;;;;;5105514;28;19908;-65
2022/04/04 01:45:08;;;;;;;;;;;-1.50;91.00;;;;;;5105816;28;20022;-65
2022/04/04 01:47:34;;;;;;;;;;;-1.50;91.10;;;;;;5105413;28;19918;-64
2022/04/04 01:49:59;;;;;;;;;;;-1.50;91.30;;;;;;5105465;28;20199;-64
2022/04/04 01:52:25;;;;;;;;;;;-1.50;90.90;;;;;;5105442;28;19915;-64
2022/04/04 01:54:51;;;;;;;;;;;-1.50;91.00;;;;;;5105529;28;19908;-64
2022/04/04 01:57:17;;;;;;;;;;;-1.50;91.10;;;;;;5117850;28;19983;-65
2022/04/04 01:59:43;;;;;;;;;;;-1.60;91.10;;;;;;5125967;28;19916;-65
2022/04/04 02:02:08;;;;;;;;;;;-1.60;91.00;;;;;;5125610;28;19908;-64
2022/04/04 02:04:35;;;;;;;;;;;-1.60;91.00;;;;;;5107974;28;19919;-64
2022/04/04 02:07:01;;;;;;;;;;;-1.60;91.30;;;;;;5116009;28;20174;-65
2022/04/04 02:09:27;;;;;;;;;;;-1.70;91.20;;;;;;5125787;28;19907;-65
2022/04/04 02:11:52;;;;;;;;;;;-1.70;91.10;;;;;;5125412;28;19916;-65
2022/04/04 02:14:18;;;;;;;;;;;-1.70;91.00;;;;;;5125856;28;19908;-65
2022/04/04 02:16:45;;;;;;;;;;;-1.70;91.10;;;;;;5125482;28;19944;-64
2022/04/04 02:19:10;;;;;;;;;;;-1.60;91.00;;;;;;5125292;28;19908;-64
2022/04/04 02:21:36;;;;;;;;;;;-1.60;91.00;;;;;;5125239;28;19908;-64
2022/04/04 02:24:03;;;;;;;;;;;-1.70;90.90;;;;;;5107185;28;20231;-64
2022/04/04 02:26:29;;;;;;;;;;;-1.70;91.10;;;;;;5124737;28;19929;-65
2022/04/04 02:28:54;;;;;;;;;;;-1.80;91.30;;;;;;5125386;28;19912;-65
2022/04/04 02:31:20;;;;;;;;;;;-1.80;91.50;;;;;;5125016;28;19915;-64
2022/04/04 02:33:46;;;;;;;;;;;-1.70;91.60;;;;;;5114089;28;19908;-64
2022/04/04 02:36:11;;;;;;;;;;;-1.70;91.50;;;;;;5104902;28;19929;-64
2022/04/04 02:38:37;;;;;;;;;;;-1.80;91.60;;;;;;5104763;28;20114;-65
2022/04/04 02:41:04;;;;;;;;;;;-1.80;91.70;;;;;;5104451;28;20194;-65
2022/04/04 02:43:29;;;;;;;;;;;-1.90;91.70;;;;;;5104662;28;20142;-65
2022/04/04 02:45:55;;;;;;;;;;;-1.90;91.90;;;;;;5104567;28;19908;-65
2022/04/04 02:48:21;;;;;;;;;;;-1.90;92.10;;;;;;5104214;28;19912;-64
2022/04/04 02:50:48;;;;;;;;;;;-2.00;92.30;;;;;;5104421;28;19912;-65
2022/04/04 02:53:13;;;;;;;;;;;-1.90;92.20;;;;;;5104421;28;19915;-65
2022/04/04 02:58:24;;;;;;;;;;;-2.00;92.20;;;;;;5104491;28;19981;-65
2022/04/04 03:00:49;;;;;;;;;;;-1.90;92.20;;;;;;5104039;28;20141;-64
2022/04/04 03:03:15;;;;;;;;;;;-2.00;92.30;;;;;;5103918;28;19934;-64
2022/04/04 03:05:41;;;;;;;;;;;-2.00;92.30;;;;;;5104385;28;19946;-64
2022/04/04 03:08:07;;;;;;;;;;;-2.00;92.40;;;;;;5104120;28;19916;-64
2022/04/04 03:10:33;;;;;;;;;;;-2.00;92.50;;;;;;5104182;28;19915;-63
2022/04/04 03:13:05;;;;;;;;;;;-1.90;92.10;;;;;;5104013;28;19983;-64
2022/04/04 03:15:31;;;;;;;;;;;-2.00;92.10;;;;;;5104324;28;20149;-63
2022/04/04 03:17:57;;;;;;;;;;;-2.10;92.30;;;;;;5103746;28;20214;-64
2022/04/04 03:20:24;;;;;;;;;;;-2.10;92.60;;;;;;5103993;28;19908;-64
2022/04/04 03:22:52;;;;;;;;;;;-2.10;92.70;;;;;;5103548;28;20009;-64
2022/04/04 03:25:17;;;;;;;;;;;-2.10;92.70;;;;;;5103603;28;19916;-64
2022/04/04 03:27:44;;;;;;;;;;;-2.00;92.40;;;;;;5085785;28;19939;-64
2022/04/04 03:30:11;;;;;;;;;;;-2.10;92.50;;;;;;5103749;28;19915;-64
2022/04/04 03:32:36;;;;;;;;;;;-2.10;92.60;;;;;;5103187;28;19908;-64
2022/04/04 03:35:04;;;;;;;;;;;-2.20;92.80;;;;;;5103211;28;19923;-64
2022/04/04 03:37:36;;;;;;;;;;;-2.20;93.00;;;;;;5102436;28;19987;-64
2022/04/04 03:40:03;;;;;;;;;;;-2.10;92.90;;;;;;5103357;28;19908;-64
2022/04/04 03:42:29;;;;;;;;;;;-2.20;93.00;;;;;;5103127;28;19916;-64
2022/04/04 03:44:55;;;;;;;;;;;-2.10;92.90;;;;;;5103447;28;20011;-64
2022/04/04 03:47:22;;;;;;;;;;;-2.20;93.00;;;;;;5103022;28;19993;-64
2022/04/04 03:49:48;;;;;;;;;;;-2.20;93.00;;;;;;5103316;28;19924;-64
2022/04/04 03:52:14;;;;;;;;;;;-2.20;93.10;;;;;;5103058;28;19944;-64
2022/04/04 03:54:40;;;;;;;;;;;-2.20;93.10;;;;;;5103297;28;19975;-64
2022/04/04 03:57:06;;;;;;;;;;;-2.30;93.20;;;;;;5103416;28;19930;-64
2022/04/04 03:59:31;;;;;;;;;;;-2.30;93.10;;;;;;5103371;28;20010;-64
2022/04/04 04:01:57;;;;;;;;;;;-2.30;93.10;;;;;;5103135;28;20204;-64
2022/04/04 04:04:23;;;;;;;;;;;-2.30;93.30;;;;;;5102863;28;19916;-64
2022/04/04 04:06:49;;;;;;;;;;;-2.30;93.40;;;;;;5103152;28;19989;-64
2022/04/04 04:09:14;;;;;;;;;;;-2.20;92.90;;;;;;5103030;28;19945;-64
2022/04/04 04:11:41;;;;;;;;;;;-2.10;92.80;;;;;;5102805;28;19908;-63
2022/04/04 04:14:06;;;;;;;;;;;-2.10;92.80;;;;;;5102960;28;19935;-64
2022/04/04 04:16:32;;;;;;;;;;;-2.10;92.90;;;;;;5102847;28;20146;-65
2022/04/04 04:18:58;;;;;;;;;;;-2.10;92.90;;;;;;5067801;28;19996;-65
2022/04/04 04:21:24;;;;;;;;;;;-2.10;93.00;;;;;;5102558;28;19967;-64
2022/04/04 04:23:50;;;;;;;;;;;-2.10;92.90;;;;;;5102548;28;19916;-64
2022/04/04 04:26:16;;;;;;;;;;;-2.00;92.80;;;;;;5102876;28;20085;-64
2022/04/04 04:28:45;;;;;;;;;;;-2.10;92.80;;;;;;5102628;28;19915;-64
2022/04/04 04:31:12;;;;;;;;;;;-2.20;93.00;;;;;;5102456;28;19916;-64
2022/04/04 04:33:38;;;;;;;;;;;-2.20;93.10;;;;;;5083984;28;19923;-64
2022/04/04 04:36:03;;;;;;;;;;;-2.20;93.00;;;;;;5102451;28;19912;-64
2022/04/04 04:38:30;;;;;;;;;;;-2.20;93.00;;;;;;5102389;28;20197;-64
2022/04/04 04:40:57;;;;;;;;;;;-2.20;93.30;;;;;;5102241;28;19908;-64
2022/04/04 04:43:22;;;;;;;;;;;-2.30;93.30;;;;;;5095491;28;20222;-64
2022/04/04 04:45:48;;;;;;;;;;;-2.30;93.40;;;;;;5101652;28;19912;-64
2022/04/04 04:48:14;;;;;;;;;;;-2.30;93.50;;;;;;5101051;28;20230;-64
2022/04/04 04:50:40;;;;;;;;;;;-2.30;93.60;;;;;;5089202;28;20113;-64
2022/04/04 04:53:05;;;;;;;;;;;-2.30;93.50;;;;;;5102206;28;19908;-64
2022/04/04 04:55:31;;;;;;;;;;;-2.30;93.60;;;;;;5102651;28;19951;-64
2022/04/04 04:57:57;;;;;;;;;;;-2.30;93.60;;;;;;5102588;28;19916;-63
2022/04/04 05:00:25;;;;;;;;;;;-2.20;93.50;;;;;;5099941;28;19928;-63
2022/04/04 05:03:24;;;;;;;;;;;-2.30;93.60;;;;;;5072835;28;19911;-63
2022/04/04 05:05:37;;;;;;;;;;;-2.20;93.40;;;;;;5093747;28;19916;-63
2022/04/04 05:08:03;;;;;;;;;;;-2.20;93.20;;;;;;5084543;28;19973;-64
2022/04/04 05:10:29;;;;;;;;;;;-2.20;93.40;;;;;;5102057;28;19915;-63
2022/04/04 05:12:55;;;;;;;;;;;-2.20;93.40;;;;;;5098275;28;19912;-63
2022/04/04 05:15:22;;;;;;;;;;;-2.20;93.30;;;;;;5101640;28;19939;-63
2022/04/04 05:17:48;;;;;;;;;;;-2.20;93.50;;;;;;5100577;28;19916;-63
2022/04/04 05:20:14;;;;;;;;;;;-2.20;93.60;;;;;;5100980;28;19919;-63
2022/04/04 05:22:39;;;;;;;;;;;-2.30;93.70;;;;;;5097488;28;19946;-64
2022/04/04 05:25:05;;;;;;;;;;;-2.20;93.70;;;;;;5101156;28;19912;-63
2022/04/04 05:27:31;;;;;;;;;;;-2.20;93.60;;;;;;5100409;28;19924;-63
2022/04/04 05:29:56;;;;;;;;;;;-2.10;93.50;;;;;;5096921;28;19912;-63
2022/04/04 05:32:22;;;;;;;;;;;-2.10;93.30;;;;;;5101386;28;19923;-63
2022/04/04 05:34:48;;;;;;;;;;;-2.20;93.40;;;;;;5097829;28;19919;-64
2022/04/04 05:37:13;;;;;;;;;;;-2.10;93.80;;;;;;5101575;28;20096;-63
2022/04/04 05:39:39;;;;;;;;;;;-2.10;93.60;;;;;;5101834;28;20106;-63
2022/04/04 05:42:05;;;;;;;;;;;-2.00;93.30;;;;;;5101468;28;19914;-64
2022/04/04 05:44:32;;;;;;;;;;;-2.00;93.40;;;;;;5101609;28;19919;-63
2022/04/04 05:46:59;;;;;;;;;;;-1.90;93.20;;;;;;5101323;28;20108;-64
2022/04/04 05:49:24;;;;;;;;;;;-1.80;92.90;;;;;;5101679;28;19915;-64
2022/04/04 05:51:50;;;;;;;;;;;-1.70;92.80;;;;;;5101575;28;19975;-64
2022/04/04 05:54:16;;;;;;;;;;;-1.60;92.70;;;;;;5101804;28;19971;-64
2022/04/04 05:56:44;;;;;;;;;;;-1.60;92.60;;;;;;5101799;28;19943;-64
2022/04/04 05:59:13;;;;;;;;;;;-1.60;92.40;;;;;;5101766;28;19956;-64
2022/04/04 06:01:39;;;;;;;;;;;-1.60;92.50;;;;;;5103523;28;19914;-64
2022/04/04 06:04:05;;;;;;;;;;;-1.50;92.60;;;;;;5103247;28;19979;-63
2022/04/04 06:06:31;;;;;;;;;;;-1.40;92.70;;;;;;5105075;28;19919;-63
2022/04/04 06:08:56;;;;;;;;;;;-1.40;92.40;;;;;;5105077;28;19969;-64
2022/04/04 06:11:22;;;;;;;;;;;-1.30;92.30;;;;;;5104637;28;19953;-64
2022/04/04 06:13:48;;;;;;;;;;;-1.10;92.10;;;;;;5105082;28;19908;-63
2022/04/04 06:16:14;;;;;;;;;;;-1.10;91.90;;;;;;5105048;28;20150;-63
2022/04/04 06:18:40;;;;;;;;;;;-1.00;92.00;;;;;;5104805;28;19919;-63
2022/04/04 06:21:06;;;;;;;;;;;-0.80;91.40;;;;;;5104959;28;20137;-64
2022/04/04 06:23:33;;;;;;;;;;;-0.80;91.20;;;;;;5104988;28;19920;-63
2022/04/04 06:26:00;;;;;;;;;;;-0.70;91.00;;;;;;5105099;28;20103;-63
2022/04/04 06:28:27;;;;;;;;;;;-0.70;91.00;;;;;;5104988;28;19911;-63
2022/04/04 06:30:54;;;;;;;;;;;-0.60;91.10;;;;;;5104688;28;19908;-64
2022/04/04 06:33:20;;;;;;;;;;;-0.60;91.00;;;;;;5104575;28;19908;-62
2022/04/04 06:35:47;;;;;;;;;;;-0.60;91.10;;;;;;5103999;28;19986;-64
2022/04/04 06:38:14;;;;;;;;;;;-0.50;91.00;;;;;;5104686;28;19908;-64
2022/04/04 06:40:40;;;;;;;;;;;-0.50;91.10;;;;;;5104483;28;19919;-63
2022/04/04 06:43:06;;;;;;;;;;;-0.40;91.00;;;;;;5104722;28;19940;-62
2022/04/04 06:45:31;;;;;;;;;;;-0.30;91.00;;;;;;5104723;28;19915;-63
2022/04/04 06:47:57;;;;;;;;;;;-0.30;91.10;;;;;;5104477;28;19958;-63
2022/04/04 06:50:23;;;;;;;;;;;-0.20;90.80;;;;;;5104439;28;19908;-63
2022/04/04 06:52:49;;;;;;;;;;;-0.10;91.20;;;;;;5086694;28;19909;-63
2022/04/04 06:55:15;;;;;;;;;;;-0.10;90.60;;;;;;5086882;28;19908;-63
2022/04/04 06:57:41;;;;;;;;;;;0.00;90.50;;;;;;5104421;28;19908;-63
2022/04/04 07:00:08;;;;;;;;;;;0.00;90.40;;;;;;5104421;28;19962;-63
2022/04/04 07:02:36;;;;;;;;;;;0.10;90.50;;;;;;5104195;28;19975;-62
2022/04/04 07:05:05;;;;;;;;;;;0.10;90.30;;;;;;5108227;28;20273;-63
2022/04/04 07:07:31;;;;;;;;;;;0.20;90.10;;;;;;5104455;28;19969;-64
2022/04/04 07:09:57;;;;;;;;;;;0.30;90.20;;;;;;5104176;28;19973;-63
2022/04/04 07:12:23;;;;;;;;;;;0.40;90.10;;;;;;5103866;28;19915;-63
2022/04/04 07:14:48;;;;;;;;;;;0.50;89.90;;;;;;5104211;28;19931;-63
2022/04/04 07:17:14;;;;;;;;;;;0.70;89.90;;;;;;5103993;28;19954;-64
2022/04/04 07:19:40;;;;;;;;;;;0.90;89.50;;;;;;5103752;28;20110;-63
2022/04/04 07:22:05;;;;;;;;;;;1.00;89.00;;;;;;5103624;28;19908;-64
2022/04/04 07:24:31;;;;;;;;;;;1.10;88.30;;;;;;5103592;28;19912;-64
2022/04/04 07:26:57;;;;;;;;;;;1.20;87.60;;;;;;5103536;28;19916;-64
2022/04/04 07:29:23;;;;;;;;;;;1.40;87.70;;;;;;5103377;28;20107;-64
2022/04/04 07:31:48;;;;;;;;;;;1.40;86.30;;;;;;5103732;28;19919;-65
2022/04/04 07:34:14;;;;;;;;;;;1.50;85.50;;;;;;5098803;28;19951;-67
2022/04/04 07:36:40;;;;;;;;;;;1.60;85.60;;;;;;5094510;28;19919;-67
2022/04/04 07:39:06;;;;;;;;;;;1.60;85.60;;;;;;5085383;28;20111;-71
2022/04/04 07:41:32;;;;;;;;;;;1.70;85.20;;;;;;5085168;28;19920;-70
2022/04/04 07:43:58;;;;;;;;;;;1.80;85.30;;;;;;5103643;28;19918;-70
2022/04/04 07:46:24;;;;;;;;;;;1.80;85.30;;;;;;5102767;28;19908;-67
2022/04/04 07:48:54;;;;;;;;;;;1.90;85.00;;;;;;5103013;28;19912;-71
2022/04/04 07:51:20;;;;;;;;;;;2.00;82.90;;;;;;5103100;28;20232;-69
2022/04/04 07:53:45;;;;;;;;;;;2.10;82.20;;;;;;5102414;28;19987;-69
2022/04/04 07:56:11;;;;;;;;;;;2.20;82.80;;;;;;5103347;28;19915;-66
2022/04/04 07:58:37;;;;;;;;;;;2.30;81.00;;;;;;5085069;28;20318;-65
2022/04/04 08:01:03;;;;;;;;;;;2.30;79.30;;;;;;5090778;28;20112;-69
2022/04/04 08:03:29;;;;;;;;;;;2.30;79.80;;;;;;5066110;28;19913;-70
2022/04/04 08:05:55;;;;;;;;;;;2.40;80.80;;;;;;5087553;28;19915;-69
2022/04/04 08:08:20;;;;;;;;;;;2.40;79.60;;;;;;5103413;28;19938;-70
2022/04/04 08:10:46;;;;;;;;;;;2.60;79.10;;;;;;5103779;28;19912;-66
2022/04/04 08:13:12;;;;;;;;;;;2.60;78.80;;;;;;5103957;28;19954;-67
2022/04/04 08:15:37;;;;;;;;;;;2.70;78.50;;;;;;5102829;28;20119;-67
2022/04/04 08:18:04;;;;;;;;;;;2.90;77.80;;;;;;5102249;28;19995;-66
2022/04/04 08:20:30;;;;;;;;;;;2.90;76.90;;;;;;5102276;28;19908;-67
2022/04/04 08:22:55;;;;;;;;;;;3.00;76.70;;;;;;5084589;28;20110;-67
2022/04/04 08:25:21;;;;;;;;;;;3.20;74.20;;;;;;5102694;28;19940;-67
2022/04/04 08:27:47;;;;;;;;;;;3.30;74.70;;;;;;5102761;28;20088;-67
2022/04/04 08:30:13;;;;;;;;;;;3.40;74.10;;;;;;5102585;28;19947;-67
2022/04/04 08:32:39;;;;;;;;;;;3.40;74.20;;;;;;5108703;28;19915;-67
2022/04/04 08:35:06;;;;;;;;;;;3.50;74.70;;;;;;5108339;28;19908;-67
2022/04/04 08:37:33;;;;;;;;;;;3.60;73.60;;;;;;5102583;28;19912;-67
2022/04/04 08:39:59;;;;;;;;;;;3.70;72.50;;;;;;5102817;28;19916;-67
2022/04/04 08:42:28;;;;;;;;;;;3.70;72.10;;;;;;5101947;28;20203;-72
2022/04/04 08:44:55;;;;;;;;;;;3.80;71.00;;;;;;5084881;28;19919;-73
2022/04/04 08:47:22;;;;;;;;;;;3.90;71.70;;;;;;5102274;28;19979;-72
2022/04/04 08:49:52;;;;;;;;;;;4.10;71.70;;;;;;5102053;28;19954;-72
2022/04/04 08:52:18;;;;;;;;;;;4.10;69.80;;;;;;5084244;28;20215;-73
2022/04/04 08:54:43;;;;;;;;;;;4.40;68.60;;;;;;5102093;28;19908;-72
2022/04/04 08:57:09;;;;;;;;;;;4.50;68.20;;;;;;5102207;28;19920;-72
2022/04/04 08:59:35;;;;;;;;;;;4.40;66.50;;;;;;5102027;28;19999;-71
2022/04/04 09:02:01;;;;;;;;;;;4.60;65.90;;;;;;5101837;28;19908;-71
2022/04/04 09:04:27;;;;;;;;;;;4.60;64.80;;;;;;5084795;28;20203;-71
2022/04/04 09:06:53;;;;;;;;;;;4.60;64.90;;;;;;5102088;28;20021;-71
2022/04/04 09:09:42;;;;;;;;;;;4.70;64.50;;;;;;5101969;28;19908;-73
2022/04/04 09:12:13;;;;;;;;;;;4.70;64.40;;;;;;5101659;28;19908;-73
2022/04/04 09:14:46;;;;;;;;;;;4.70;62.20;;;;;;5084436;28;20218;-74
2022/04/04 09:17:13;;;;;;;;;;;4.70;63.00;;;;;;5102283;28;20002;-73
2022/04/04 09:19:38;;;;;;;;;;;4.80;62.80;;;;;;5101586;28;20228;-73
2022/04/04 09:22:06;;;;;;;;;;;4.70;59.60;;;;;;5084008;28;19908;-74
2022/04/04 09:25:00;;;;;;;;;;;4.80;62.50;;;;;;5067862;28;19920;-73
2022/04/04 09:27:27;;;;;;;;;;;4.90;61.50;;;;;;5084390;28;19919;-74
2022/04/04 09:30:00;;;;;;;;;;;5.10;59.60;;;;;;5102110;28;19916;-73
2022/04/04 09:32:46;;;;;;;;;;;5.20;58.50;;;;;;5101493;28;19931;-73
2022/04/04 09:35:16;;;;;;;;;;;5.20;58.70;;;;;;5103086;28;20014;-73
2022/04/04 09:37:43;;;;;;;;;;;5.20;58.60;;;;;;5106206;28;19943;-74
2022/04/04 09:40:19;;;;;;;;;;;5.30;58.60;;;;;;5106343;28;20077;-73
2022/04/04 09:42:51;;;;;;;;;;;5.50;57.50;;;;;;5087562;28;20230;-68
2022/04/04 09:45:17;;;;;;;;;;;5.40;57.30;;;;;;5105824;28;19959;-74
2022/04/04 09:47:57;;;;;;;;;;;5.50;58.10;;;;;;5087527;28;19939;-74
2022/04/04 09:50:41;;;;;;;;;;;5.60;56.20;;;;;;5105177;28;20312;-73
2022/04/04 09:53:30;;;;;;;;;;;5.50;56.00;;;;;;5089190;28;20237;-73
2022/04/04 09:55:57;;;;;;;;;;;5.40;56.10;;;;;;5078340;28;19915;-74
2022/04/04 09:58:24;;;;;;;;;;;5.50;55.30;;;;;;5105312;28;20234;-71
2022/04/04 10:00:50;;;;;;;;;;;5.60;54.20;;;;;;5105346;28;19908;-71
2022/04/04 10:03:19;;;;;;;;;;;5.80;53.60;;;;;;5087384;28;20088;-72
2022/04/04 10:05:47;;;;;;;;;;;5.90;52.40;;;;;;5104260;28;20122;-72
2022/04/04 10:08:17;;;;;;;;;;;6.00;52.30;;;;;;5087282;28;19991;-69
2022/04/04 10:10:43;;;;;;;;;;;6.10;52.50;;;;;;5086862;28;19979;-71
2022/04/04 10:13:13;;;;;;;;;;;6.30;51.00;;;;;;5087214;28;20113;-74
2022/04/04 10:15:38;;;;;;;;;;;6.50;51.10;;;;;;5105033;28;20218;-68
2022/04/04 10:18:04;;;;;;;;;;;6.50;51.40;;;;;;5105030;28;19957;-68
2022/04/04 10:20:30;;;;;;;;;;;6.70;51.30;;;;;;5104258;28;19912;-67
2022/04/04 10:22:56;;;;;;;;;;;6.80;48.20;;;;;;5104811;28;19908;-67
2022/04/04 10:25:26;;;;;;;;;;;6.80;48.10;;;;;;5104809;28;19912;-69
2022/04/04 10:27:52;;;;;;;;;;;6.90;47.70;;;;;;5104652;28;19916;-68
2022/04/04 10:30:18;;;;;;;;;;;7.10;48.20;;;;;;5104750;28;19953;-66
2022/04/04 10:32:54;;;;;;;;;;;7.40;47.40;;;;;;5104111;28;19915;-67
2022/04/04 10:35:24;;;;;;;;;;;7.60;45.90;;;;;;5107725;28;19908;-67
2022/04/04 10:37:50;;;;;;;;;;;7.50;44.30;;;;;;5104532;28;19908;-67
2022/04/04 10:40:21;;;;;;;;;;;7.40;45.80;;;;;;5104283;28;19915;-68
2022/04/04 10:42:48;;;;;;;;;;;7.40;45.70;;;;;;5104274;28;19908;-68
2022/04/04 10:45:15;;;;;;;;;;;7.50;44.40;;;;;;5086454;28;19992;-67
2022/04/04 10:47:44;;;;;;;;;;;7.50;44.50;;;;;;5103950;28;19912;-67
2022/04/04 10:50:23;;;;;;;;;;;7.70;43.10;;;;;;5104077;28;19908;-67
2022/04/04 10:52:49;;;;;;;;;;;7.70;42.30;;;;;;5104297;28;20199;-67
2022/04/04 10:55:25;;;;;;;;;;;7.70;43.50;;;;;;5104183;28;19915;-67
2022/04/04 10:57:52;;;;;;;;;;;7.80;43.40;;;;;;5104332;28;19928;-68
2022/04/04 11:00:18;;;;;;;;;;;7.60;43.50;;;;;;5104142;28;19916;-67
2022/04/04 11:02:44;;;;;;;;;;;7.70;42.00;;;;;;5085861;28;19983;-67
2022/04/04 11:08:05;;;;;;;;;;;8.00;43.10;;;;;;5104011;28;19981;-67
2022/04/04 11:10:42;;;;;;;;;;;8.10;43.50;;;;;;5105308;28;19915;-67
2022/04/04 11:13:12;;;;;;;;;;;8.30;43.90;;;;;;5103995;28;19943;-67
2022/04/04 11:15:43;;;;;;;;;;;8.30;43.50;;;;;;5104079;28;19916;-67
2022/04/04 11:18:12;;;;;;;;;;;8.40;43.90;;;;;;5103870;28;19958;-68
2022/04/04 11:20:50;;;;;;;;;;;8.40;43.30;;;;;;5103279;28;19912;-67
2022/04/04 11:23:16;;;;;;;;;;;8.70;43.40;;;;;;5085520;28;19944;-70
2022/04/04 11:25:49;;;;;;;;;;;9.00;43.10;;;;;;5103857;28;19908;-71
2022/04/04 11:28:17;;;;;;;;;;;9.10;42.10;;;;;;5085776;28;20173;-72
2022/04/04 11:30:43;;;;;;;;;;;9.00;42.80;;;;;;5103413;28;19955;-67
2022/04/04 11:33:17;;;;;;;;;;;9.10;42.90;;;;;;5085716;28;20134;-69
2022/04/04 11:35:44;;;;;;;;;;;9.20;42.90;;;;;;5103411;28;20108;-70
2022/04/04 11:38:12;;;;;;;;;;;9.00;42.10;;;;;;5085853;28;19908;-67
2022/04/04 11:40:44;;;;;;;;;;;8.60;42.30;;;;;;5102034;28;19924;-67
2022/04/04 11:43:13;;;;;;;;;;;8.60;43.30;;;;;;5105912;28;20301;-65
2022/04/04 11:45:40;;;;;;;;;;;9.00;42.90;;;;;;5123470;28;20147;-66
2022/04/04 11:48:07;;;;;;;;;;;9.10;42.00;;;;;;5123480;28;19912;-65
2022/04/04 11:50:34;;;;;;;;;;;9.20;42.90;;;;;;5102495;28;19916;-66
2022/04/04 11:53:12;;;;;;;;;;;9.60;41.70;;;;;;5103212;28;19940;-66
2022/04/04 11:55:40;;;;;;;;;;;10.10;41.70;;;;;;5103293;28;19915;-65
2022/04/04 11:58:12;;;;;;;;;;;10.50;40.70;;;;;;5102665;28;19908;-66
2022/04/04 12:00:43;;;;;;;;;;;11.40;40.20;;;;;;5102933;28;19931;-65
2022/04/04 12:03:12;;;;;;;;;;;12.00;38.20;;;;;;5103079;28;19908;-73
2022/04/04 12:05:38;;;;;;;;;;;12.70;37.00;;;;;;5102815;28;19916;-73
2022/04/04 12:08:05;;;;;;;;;;;13.70;34.90;;;;;;5102649;28;19908;-73
2022/04/04 12:10:31;;;;;;;;;;;14.20;31.90;;;;;;5084276;28;19920;-73
2022/04/04 12:12:59;;;;;;;;;;;14.40;32.30;;;;;;5102630;28;19986;-73
2022/04/04 12:15:26;;;;;;;;;;;15.30;31.80;;;;;;5123093;28;19912;-73
2022/04/04 12:17:52;;;;;;;;;;;15.40;31.00;;;;;;5105154;28;20411;-72
2022/04/04 12:20:18;;;;;;;;;;;16.60;29.70;;;;;;5105144;28;19915;-73
2022/04/04 12:25:28;;;;;;;;;;;16.80;29.50;;;;;;5086775;28;19926;-73
2022/04/04 12:27:57;;;;;;;;;;;17.40;28.80;;;;;;5084358;28;19944;-68
2022/04/04 12:30:36;;;;;;;;;;;17.70;28.20;;;;;;5101876;28;20245;-69
2022/04/04 12:33:12;;;;;;;;;;;17.80;28.90;;;;;;5102524;28;20432;-70
2022/04/04 12:35:43;;;;;;;;;;;18.00;45.80;;;;;;5101723;28;19908;-70
2022/04/04 12:38:09;;;;;;;;;;;17.60;28.40;;;;;;5101818;28;19908;-69
2022/04/04 12:40:35;;;;;;;;;;;18.50;27.30;;;;;;5100952;28;19908;-69
2022/04/04 12:43:08;;;;;;;;;;;18.10;27.20;;;;;;5102485;28;19946;-69
2022/04/04 12:45:34;;;;;;;;;;;17.80;28.10;;;;;;5110465;28;19912;-70
2022/04/04 12:48:07;;;;;;;;;;;17.20;27.80;;;;;;5084106;28;19943;-71
2022/04/04 12:50:43;;;;;;;;;;;17.90;27.40;;;;;;5101136;28;19920;-70
2022/04/04 12:53:10;;;;;;;;;;;18.40;26.70;;;;;;5102301;28;20222;-70
2022/04/04 12:55:37;;;;;;;;;;;17.10;27.70;;;;;;5101911;28;20115;-70
2022/04/04 12:58:19;;;;;;;;;;;17.20;28.60;;;;;;5102027;28;19923;-71
2022/04/04 13:00:44;;;;;;;;;;;17.10;28.40;;;;;;5101384;28;19954;-71
2022/04/04 13:03:19;;;;;;;;;;;17.50;28.00;;;;;;5083414;28;20088;-71
2022/04/04 13:05:47;;;;;;;;;;;18.10;27.30;;;;;;5101071;28;19993;-69
2022/04/04 13:08:22;;;;;;;;;;;18.40;27.40;;;;;;5101281;28;19916;-67
2022/04/04 13:11:13;;;;;;;;;;;18.00;28.00;;;;;;5101589;28;19919;-67
2022/04/04 13:14:05;;;;;;;;;;;17.10;28.10;;;;;;5106197;28;19914;-67
2022/04/04 13:16:32;;;;;;;;;;;17.60;28.80;;;;;;5087951;28;20203;-67
2022/04/04 13:18:59;;;;;;;;;;;18.00;27.90;;;;;;5105313;28;20250;-72
2022/04/04 13:21:25;;;;;;;;;;;17.80;28.10;;;;;;5104942;28;19940;-73
2022/04/04 13:23:50;;;;;;;;;;;17.80;27.90;;;;;;5086873;28;20142;-72
2022/04/04 13:26:16;;;;;;;;;;;17.10;28.20;;;;;;5105518;28;20223;-64
2022/04/04 13:28:42;;;;;;;;;;;17.50;28.40;;;;;;5105135;28;19922;-65
2022/04/04 13:31:07;;;;;;;;;;;17.80;27.90;;;;;;5104095;28;19948;-66
2022/04/04 13:33:34;;;;;;;;;;;16.60;28.70;;;;;;5108790;28;19908;-66
2022/04/04 13:36:01;;;;;;;;;;;16.30;29.10;;;;;;5106141;28;20256;-67
2022/04/04 13:38:27;;;;;;;;;;;16.10;29.80;;;;;;5104299;28;19983;-67
2022/04/04 13:40:53;;;;;;;;;;;15.80;30.00;;;;;;5083668;28;19961;-67
2022/04/04 13:43:18;;;;;;;;;;;15.70;30.40;;;;;;5104789;28;20207;-68
2022/04/04 13:45:44;;;;;;;;;;;16.20;29.80;;;;;;5104522;28;19915;-67
2022/04/04 13:48:10;;;;;;;;;;;16.30;29.40;;;;;;5104482;28;19912;-67
2022/04/04 13:50:36;;;;;;;;;;;15.60;29.50;;;;;;5103929;28;19909;-67
2022/04/04 13:53:01;;;;;;;;;;;14.40;31.30;;;;;;5104283;28;19961;-67
2022/04/04 13:55:28;;;;;;;;;;;14.30;32.80;;;;;;5104549;28;20249;-68
2022/04/04 13:57:54;;;;;;;;;;;14.80;32.10;;;;;;5104404;28;20001;-67
2022/04/04 14:00:20;;;;;;;;;;;15.00;31.20;;;;;;5104350;28;19908;-67
2022/04/04 14:02:45;;;;;;;;;;;14.60;31.80;;;;;;5103647;28;19908;-67
2022/04/04 14:05:12;;;;;;;;;;;13.60;32.80;;;;;;5104017;28;20011;-67
2022/04/04 14:07:38;;;;;;;;;;;13.20;34.10;;;;;;5104180;28;19915;-67
2022/04/04 14:10:04;;;;;;;;;;;13.00;34.80;;;;;;5103905;28;19963;-67
2022/04/04 14:12:31;;;;;;;;;;;12.50;34.60;;;;;;5102952;28;19942;-67
2022/04/04 14:14:58;;;;;;;;;;;12.30;35.80;;;;;;5103763;28;19919;-67
2022/04/04 14:17:24;;;;;;;;;;;12.60;35.80;;;;;;5103953;28;20174;-66
2022/04/04 14:19:50;;;;;;;;;;;12.50;36.00;;;;;;5103991;28;20187;-66
2022/04/04 14:22:16;;;;;;;;;;;12.10;34.70;;;;;;5102017;28;19908;-66
2022/04/04 14:24:41;;;;;;;;;;;12.20;34.40;;;;;;5103735;28;20119;-66
2022/04/04 14:27:07;;;;;;;;;;;11.50;35.30;;;;;;5103368;28;19923;-66
2022/04/04 14:29:33;;;;;;;;;;;11.10;36.60;;;;;;5103532;28;20207;-66